createdAt,value
2023-01-28T00:01:22.625Z,6.35
2023-01-28T00:03:54.615Z,7.32
2023-01-28T00:06:21.480Z,7.25
2023-01-28T00:08:48.674Z,6.82
2023-01-28T00:11:15.463Z,6.55
2023-01-28T00:13:42.375Z,6.18
2023-01-28T00:16:10.192Z,9.50
2023-01-28T00:18:37.613Z,7.20
2023-01-28T00:21:08.938Z,5.95
2023-01-28T00:23:38.025Z,9.38
2023-01-28T00:26:14.372Z,7.88
2023-01-28T00:28:42.617Z,7.00
2023-01-28T00:31:18.127Z,8.15
2023-01-28T00:33:47.524Z,7.38
2023-01-28T00:36:16.034Z,7.40
2023-01-28T00:38:43.624Z,7.95
2023-01-28T00:41:16.457Z,7.40
2023-01-28T00:43:45.074Z,8.20
2023-01-28T00:46:14.129Z,6.97
2023-01-28T00:48:43.018Z,6.90
2023-01-28T00:51:13.123Z,5.97
2023-01-28T00:53:41.096Z,6.57
2023-01-28T00:56:09.963Z,9.15
2023-01-28T00:58:36.755Z,6.18
2023-01-28T01:01:13.605Z,7.72
2023-01-28T01:03:40.739Z,6.78
2023-01-28T01:06:09.015Z,8.75
2023-01-28T01:08:36.056Z,6.65
2023-01-28T01:11:03.943Z,7.75
2023-01-28T01:13:32.796Z,7.25
2023-01-28T01:16:14.546Z,6.72
2023-01-28T01:18:42.131Z,7.60
2023-01-28T01:21:15.790Z,7.60
2023-01-28T01:23:42.517Z,7.28
2023-01-28T01:26:09.820Z,8.88
2023-01-28T01:28:37.442Z,5.07
2023-01-28T01:31:15.066Z,5.80
2023-01-28T01:33:43.707Z,7.60
2023-01-28T01:36:12.332Z,7.80
2023-01-28T01:38:40.421Z,7.05
2023-01-28T01:41:07.913Z,7.32
2023-01-28T01:44:05.732Z,6.93
2023-01-28T01:46:43.644Z,5.70
2023-01-28T01:49:23.157Z,7.40
2023-01-28T01:51:57.220Z,6.45
2023-01-28T01:54:27.077Z,7.53
2023-01-28T01:56:53.952Z,7.35
2023-01-28T01:59:26.418Z,6.97
2023-01-28T02:01:54.313Z,7.05
2023-01-28T02:04:28.079Z,5.65
2023-01-28T02:06:56.191Z,6.68
2023-01-28T02:09:25.301Z,6.57
2023-01-28T02:11:56.101Z,5.32
2023-01-28T02:14:31.456Z,5.43
2023-01-28T02:17:00.565Z,8.48
2023-01-28T02:19:38.255Z,8.77
2023-01-28T02:22:38.258Z,7.13
2023-01-28T02:25:12.244Z,6.00
2023-01-28T02:28:08.685Z,7.82
2023-01-28T02:30:52.109Z,8.35
2023-01-28T02:33:33.084Z,6.38
2023-01-28T02:36:12.722Z,6.40
2023-01-28T02:38:49.424Z,5.70
2023-01-28T02:41:35.145Z,6.72
2023-01-28T02:44:03.694Z,6.35
2023-01-28T02:46:48.995Z,7.30
2023-01-28T02:49:28.847Z,6.45
2023-01-28T02:52:48.799Z,8.30
2023-01-28T02:55:41.403Z,6.28
2023-01-28T02:58:13.677Z,6.57
2023-01-28T03:00:54.473Z,6.57
2023-01-28T03:04:24.865Z,6.07
2023-01-28T03:06:57.611Z,4.95
2023-01-28T03:12:26.499Z,6.93
2023-01-28T03:15:20.690Z,4.35
2023-01-28T03:18:13.437Z,6.70
2023-01-28T03:21:08.331Z,4.53
2023-01-28T03:24:24.143Z,6.43
2023-01-28T03:27:31.322Z,6.35
2023-01-28T03:30:26.405Z,6.60
2023-01-28T03:33:12.911Z,5.40
2023-01-28T03:35:58.775Z,6.50
2023-01-28T03:38:34.062Z,7.20
2023-01-28T03:41:03.261Z,5.32
2023-01-28T03:43:31.356Z,5.07
2023-01-28T03:45:58.496Z,6.57
2023-01-28T03:48:27.987Z,5.70
2023-01-28T03:50:59.183Z,5.78
2023-01-28T03:53:26.380Z,5.15
2023-01-28T03:55:54.365Z,5.80
2023-01-28T03:58:21.871Z,5.78
2023-01-28T04:00:48.827Z,5.63
2023-01-28T04:03:18.917Z,4.53
2023-01-28T04:05:57.659Z,5.57
2023-01-28T04:08:25.145Z,5.07
2023-01-28T04:10:53.191Z,3.70
2023-01-28T04:13:20.241Z,4.45
2023-01-28T04:15:47.839Z,4.93
2023-01-28T04:18:14.854Z,5.25
2023-01-28T04:20:41.793Z,4.22
2023-01-28T04:23:08.796Z,4.95
2023-01-28T04:25:35.600Z,3.13
2023-01-28T04:28:02.414Z,4.10
2023-01-28T04:30:29.392Z,4.38
2023-01-28T04:32:56.139Z,4.65
2023-01-28T04:35:22.908Z,3.88
2023-01-28T04:37:49.700Z,4.53
2023-01-28T04:40:16.866Z,4.20
2023-01-28T04:42:43.762Z,3.35
2023-01-28T04:45:10.939Z,4.82
2023-01-28T04:47:37.671Z,3.40
2023-01-28T04:50:04.895Z,3.92
2023-01-28T04:52:31.635Z,2.75
2023-01-28T04:54:58.708Z,3.47
2023-01-28T04:57:25.509Z,4.28
2023-01-28T04:59:52.255Z,3.83
2023-01-28T05:02:19.053Z,2.95
2023-01-28T05:04:45.875Z,3.63
2023-01-28T05:07:12.682Z,2.88
2023-01-28T05:09:39.412Z,2.80
2023-01-28T05:12:06.493Z,3.55
2023-01-28T05:14:33.253Z,4.50
2023-01-28T05:17:00.077Z,3.58
2023-01-28T05:19:26.866Z,3.53
2023-01-28T05:21:53.576Z,2.38
2023-01-28T05:24:21.754Z,2.55
2023-01-28T05:26:48.559Z,4.05
2023-01-28T05:29:15.304Z,4.63
2023-01-28T05:31:42.054Z,2.97
2023-01-28T05:34:08.898Z,2.60
2023-01-28T05:36:35.659Z,3.20
2023-01-28T05:39:02.403Z,3.08
2023-01-28T05:41:29.197Z,2.85
2023-01-28T05:43:55.989Z,3.20
2023-01-28T05:46:23.058Z,2.92
2023-01-28T05:48:51.072Z,2.65
2023-01-28T05:51:18.147Z,3.05
2023-01-28T05:53:44.973Z,2.45
2023-01-28T05:56:11.771Z,2.53
2023-01-28T05:58:38.537Z,2.15
2023-01-28T06:01:05.332Z,2.83
2023-01-28T06:03:32.125Z,3.25
2023-01-28T06:05:58.891Z,2.80
2023-01-28T06:08:25.657Z,2.25
2023-01-28T06:10:52.414Z,2.38
2023-01-28T06:13:19.123Z,2.35
2023-01-28T06:15:51.092Z,2.97
2023-01-28T06:18:17.961Z,3.05
2023-01-28T06:20:44.712Z,2.67
2023-01-28T06:23:11.429Z,3.70
2023-01-28T06:25:38.191Z,3.13
2023-01-28T06:28:05.024Z,2.45
2023-01-28T06:30:31.879Z,2.75
2023-01-28T06:32:59.146Z,2.50
2023-01-28T06:35:26.014Z,2.25
2023-01-28T06:37:53.706Z,2.30
2023-01-28T06:40:22.976Z,3.45
2023-01-28T06:42:49.911Z,2.30
2023-01-28T06:45:16.727Z,2.40
2023-01-28T06:47:43.460Z,2.75
2023-01-28T06:50:11.206Z,2.50
2023-01-28T06:52:37.911Z,2.88
2023-01-28T06:55:05.174Z,3.95
2023-01-28T06:57:31.923Z,2.33
2023-01-28T06:59:58.675Z,2.65
2023-01-28T07:02:27.599Z,2.92
2023-01-28T07:04:54.526Z,3.80
2023-01-28T07:07:21.345Z,3.60
2023-01-28T07:09:48.082Z,2.78
2023-01-28T07:12:14.859Z,2.67
2023-01-28T07:14:41.583Z,2.53
2023-01-28T07:17:08.367Z,2.80
2023-01-28T07:19:35.428Z,2.90
2023-01-28T07:22:03.307Z,3.33
2023-01-28T07:24:30.573Z,2.75
2023-01-28T07:26:57.388Z,2.70
2023-01-28T07:29:24.125Z,2.95
2023-01-28T07:31:50.904Z,2.67
2023-01-28T07:34:17.634Z,2.60
2023-01-28T07:36:44.357Z,2.65
2023-01-28T07:39:11.120Z,2.33
2023-01-28T07:41:37.836Z,3.88
2023-01-28T07:44:04.968Z,2.35
2023-01-28T07:46:31.872Z,2.60
2023-01-28T07:48:58.599Z,3.35
2023-01-28T07:51:26.029Z,2.80
2023-01-28T07:53:52.772Z,3.03
2023-01-28T07:56:19.491Z,3.38
2023-01-28T07:58:46.233Z,3.15
2023-01-28T08:01:14.345Z,3.53
2023-01-28T08:03:41.132Z,3.40
2023-01-28T08:06:07.900Z,2.45
2023-01-28T08:08:34.719Z,2.60
2023-01-28T08:11:10.915Z,2.35
2023-01-28T08:13:37.835Z,3.20
2023-01-28T08:16:05.181Z,3.03
2023-01-28T08:18:32.230Z,3.03
2023-01-28T08:21:00.116Z,3.30
2023-01-28T08:23:29.213Z,2.60
2023-01-28T08:25:59.321Z,4.15
2023-01-28T08:28:26.599Z,4.28
2023-01-28T08:30:53.639Z,3.47
2023-01-28T08:33:20.785Z,3.90
2023-01-28T08:35:47.717Z,4.45
2023-01-28T08:38:18.046Z,3.97
2023-01-28T08:40:44.850Z,3.58
2023-01-28T08:43:11.685Z,3.15
2023-01-28T08:45:40.386Z,2.92
2023-01-28T08:48:10.221Z,4.82
2023-01-28T08:50:39.664Z,3.88
2023-01-28T08:53:12.367Z,3.90
2023-01-28T08:58:18.334Z,3.92
2023-01-28T09:00:48.047Z,3.80
2023-01-28T09:03:15.265Z,4.15
2023-01-28T09:05:42.430Z,3.58
2023-01-28T09:08:15.404Z,4.10
2023-01-28T09:10:42.705Z,5.30
2023-01-28T09:13:15.876Z,3.83
2023-01-28T09:15:43.098Z,4.13
2023-01-28T09:18:10.244Z,5.53
2023-01-28T09:20:37.857Z,4.65
2023-01-28T09:23:04.926Z,4.05
2023-01-28T09:25:32.519Z,3.70
2023-01-28T09:27:59.369Z,3.50
2023-01-28T09:30:26.674Z,3.45
2023-01-28T09:32:55.297Z,3.63
2023-01-28T09:35:22.497Z,4.43
2023-01-28T09:37:49.395Z,4.20
2023-01-28T09:40:37.393Z,6.00
2023-01-28T09:43:29.317Z,4.00
2023-01-28T09:45:59.428Z,3.15
2023-01-28T09:48:33.896Z,4.30
2023-01-28T09:51:01.931Z,4.22
2023-01-28T09:53:35.774Z,3.65
2023-01-28T09:56:13.320Z,4.45
2023-01-28T09:58:42.401Z,2.85
2023-01-28T10:01:46.354Z,4.15
2023-01-28T10:04:23.412Z,5.25
2023-01-28T10:07:43.092Z,4.30
2023-01-28T10:10:34.649Z,3.10
2023-01-28T10:13:31.493Z,3.03
2023-01-28T10:16:15.573Z,4.10
2023-01-28T10:18:52.821Z,3.97
2023-01-28T10:21:29.458Z,6.35
2023-01-28T10:24:13.851Z,4.57
2023-01-28T10:26:43.114Z,5.00
2023-01-28T10:29:28.133Z,4.53
2023-01-28T10:32:03.072Z,4.53
2023-01-28T10:34:29.832Z,3.85
2023-01-28T10:36:58.186Z,4.45
2023-01-28T10:39:26.384Z,3.55
2023-01-28T10:41:58.204Z,3.70
2023-01-28T10:44:39.170Z,4.43
2023-01-28T10:47:15.829Z,4.40
2023-01-28T10:49:49.357Z,2.97
2023-01-28T10:52:16.895Z,5.70
2023-01-28T10:54:43.639Z,4.82
2023-01-28T10:57:16.927Z,5.03
2023-01-28T10:59:44.502Z,4.90
2023-01-28T11:02:32.845Z,4.25
2023-01-28T11:05:15.221Z,4.53
2023-01-28T11:07:42.114Z,3.83
2023-01-28T11:10:32.431Z,4.72
2023-01-28T11:13:06.285Z,3.88
2023-01-28T11:15:33.624Z,6.05
2023-01-28T11:18:08.832Z,5.63
2023-01-28T11:20:43.783Z,5.75
2023-01-28T11:23:25.319Z,4.82
2023-01-28T11:26:09.506Z,5.97
2023-01-28T11:28:41.883Z,4.90
2023-01-28T11:31:13.353Z,6.00
2023-01-28T11:33:50.218Z,6.57
2023-01-28T11:36:32.178Z,4.55
2023-01-28T11:39:22.318Z,5.22
2023-01-28T11:41:49.449Z,5.60
2023-01-28T11:44:22.156Z,5.03
2023-01-28T11:47:33.915Z,5.68
2023-01-28T11:50:41.651Z,4.63
2023-01-28T11:53:40.619Z,4.50
2023-01-28T11:56:39.958Z,4.38
2023-01-28T11:59:42.879Z,6.10
2023-01-28T12:02:26.761Z,6.57
2023-01-28T12:05:12.943Z,4.63
2023-01-28T12:07:55.737Z,5.18
2023-01-28T12:10:41.604Z,4.72
2023-01-28T12:13:42.960Z,5.38
2023-01-28T12:16:17.807Z,3.90
2023-01-28T12:19:30.106Z,5.72
2023-01-28T12:22:05.705Z,4.60
2023-01-28T12:25:13.180Z,4.68
2023-01-28T12:28:10.193Z,3.70
2023-01-28T12:31:28.090Z,3.90
2023-01-28T12:34:13.449Z,4.20
2023-01-28T12:37:20.858Z,3.67
2023-01-28T12:40:09.073Z,3.60
2023-01-28T12:42:38.009Z,3.38
2023-01-28T12:45:21.043Z,3.88
2023-01-28T12:50:28.949Z,3.75
2023-01-28T12:53:14.521Z,6.55
2023-01-28T12:55:49.025Z,6.15
2023-01-28T12:58:26.082Z,4.18
2023-01-28T13:01:01.659Z,6.50
2023-01-28T13:03:42.614Z,4.50
2023-01-28T13:06:18.135Z,4.93
2023-01-28T13:08:44.914Z,4.53
2023-01-28T13:11:17.556Z,4.88
2023-01-28T13:13:46.816Z,4.35
2023-01-28T13:16:14.187Z,4.70
2023-01-28T13:18:41.074Z,4.57
2023-01-28T13:21:26.411Z,4.82
2023-01-28T13:24:02.855Z,4.63
2023-01-28T13:26:38.482Z,4.20
2023-01-28T13:29:33.440Z,3.70
2023-01-28T13:32:03.977Z,5.10
2023-01-28T13:34:38.058Z,4.47
2023-01-28T13:37:47.372Z,4.38
2023-01-28T13:40:14.075Z,3.33
2023-01-28T13:42:41.897Z,3.70
2023-01-28T13:45:22.434Z,3.92
2023-01-28T13:48:00.136Z,4.35
2023-01-28T13:50:39.832Z,2.83
2023-01-28T13:53:27.787Z,2.97
2023-01-28T13:55:58.715Z,3.80
2023-01-28T13:58:34.239Z,4.03
2023-01-28T14:01:17.974Z,2.85
2023-01-28T14:04:22.211Z,3.70
2023-01-28T14:07:20.350Z,2.67
2023-01-28T14:13:31.997Z,3.28
2023-01-28T14:16:41.660Z,3.35
2023-01-28T14:19:14.519Z,3.95
2023-01-28T14:24:18.122Z,3.20
2023-01-28T14:27:04.530Z,3.65
2023-01-28T14:29:52.441Z,3.80
2023-01-28T14:32:29.788Z,3.38
2023-01-28T14:35:00.786Z,4.65
2023-01-28T14:37:31.946Z,3.30
2023-01-28T14:39:59.718Z,3.90
2023-01-28T14:42:45.837Z,5.32
2023-01-28T14:45:33.528Z,4.05
2023-01-28T14:48:30.972Z,3.40
2023-01-28T14:51:09.776Z,4.50
2023-01-28T14:54:19.587Z,3.85
2023-01-28T14:57:49.970Z,3.50
2023-01-28T15:00:28.784Z,4.95
2023-01-28T15:02:55.996Z,5.65
2023-01-28T15:05:27.855Z,4.28
2023-01-28T15:07:55.917Z,4.15
2023-01-28T15:10:25.337Z,4.32
2023-01-28T15:13:07.075Z,3.90
2023-01-28T15:15:37.477Z,5.30
2023-01-28T15:18:16.758Z,3.70
2023-01-28T15:20:53.494Z,7.00
2023-01-28T15:23:33.886Z,4.88
2023-01-28T15:26:10.979Z,4.95
2023-01-28T15:28:40.075Z,5.07
2023-01-28T15:31:07.544Z,7.13
2023-01-28T15:33:34.341Z,5.80
2023-01-28T15:36:01.288Z,7.38
2023-01-28T15:38:29.404Z,6.95
2023-01-28T15:41:02.862Z,7.32
2023-01-28T15:43:37.323Z,4.78
2023-01-28T15:46:10.479Z,5.47
2023-01-28T15:48:42.039Z,5.03
2023-01-28T15:51:21.175Z,6.60
2023-01-28T15:53:52.701Z,6.75
2023-01-28T15:56:27.979Z,5.68
2023-01-28T15:58:56.326Z,6.45
2023-01-28T16:01:24.222Z,7.18
2023-01-28T16:04:06.859Z,5.40
2023-01-28T16:06:41.842Z,5.25
2023-01-28T16:09:24.984Z,6.80
2023-01-28T16:11:52.565Z,5.57
2023-01-28T16:14:30.454Z,4.93
2023-01-28T16:16:57.988Z,5.63
2023-01-28T16:19:46.113Z,5.90
2023-01-28T16:22:33.934Z,6.28
2023-01-28T16:25:01.015Z,6.22
2023-01-28T16:27:29.785Z,5.65
2023-01-28T16:29:56.533Z,5.75
2023-01-28T16:32:33.436Z,6.28
2023-01-28T16:35:01.054Z,6.07
2023-01-28T16:37:27.972Z,5.47
2023-01-28T16:39:54.766Z,6.10
2023-01-28T16:42:21.657Z,5.95
2023-01-28T16:44:48.493Z,7.45
2023-01-28T16:47:15.352Z,6.50
2023-01-28T16:49:42.193Z,6.53
2023-01-28T16:52:11.575Z,6.25
2023-01-28T16:54:41.091Z,5.57
2023-01-28T16:57:16.750Z,6.63
2023-01-28T16:59:43.566Z,6.53
2023-01-28T17:02:15.973Z,5.90
2023-01-28T17:04:42.772Z,5.45
2023-01-28T17:07:10.077Z,5.68
2023-01-28T17:09:36.899Z,6.30
2023-01-28T17:12:04.801Z,5.95
2023-01-28T17:14:31.609Z,6.13
2023-01-28T17:16:58.364Z,5.10
2023-01-28T17:19:25.232Z,6.28
2023-01-28T17:21:52.001Z,5.10
2023-01-28T17:24:18.804Z,6.22
2023-01-28T17:26:45.618Z,7.68
2023-01-28T17:29:12.440Z,6.50
2023-01-28T17:31:39.275Z,7.75
2023-01-28T17:34:08.231Z,6.22
2023-01-28T17:36:35.286Z,6.70
2023-01-28T17:39:02.202Z,5.90
2023-01-28T17:41:29.284Z,5.82
2023-01-28T17:43:57.002Z,5.38
2023-01-28T17:46:25.836Z,6.35
2023-01-28T17:48:53.222Z,7.72
2023-01-28T17:51:20.281Z,5.70
2023-01-28T17:53:49.033Z,5.93
2023-01-28T17:56:18.718Z,6.95
2023-01-28T17:59:06.623Z,6.57
2023-01-28T18:01:37.293Z,6.03
2023-01-28T18:04:04.796Z,6.50
2023-01-28T18:06:34.214Z,7.18
2023-01-28T18:09:01.232Z,4.80
2023-01-28T18:11:28.864Z,5.97
2023-01-28T18:13:55.917Z,5.72
2023-01-28T18:16:23.057Z,6.13
2023-01-28T18:18:50.792Z,5.88
2023-01-28T18:21:46.573Z,5.93
2023-01-28T18:24:17.621Z,5.85
2023-01-28T18:26:44.633Z,6.43
2023-01-28T18:29:16.892Z,6.22
2023-01-28T18:31:44.145Z,6.47
2023-01-28T18:34:11.179Z,5.80
2023-01-28T18:36:38.084Z,8.30
2023-01-28T18:39:05.005Z,6.53
2023-01-28T18:41:31.876Z,8.52
2023-01-28T18:43:58.724Z,5.80
2023-01-28T18:46:25.583Z,7.00
2023-01-28T18:48:52.464Z,7.53
2023-01-28T18:51:30.156Z,8.20
2023-01-28T18:54:02.554Z,7.60
2023-01-28T18:56:54.187Z,6.95
2023-01-28T18:59:21.505Z,8.40
2023-01-28T19:01:48.758Z,6.40
2023-01-28T19:04:16.415Z,6.38
2023-01-28T19:06:43.571Z,6.22
2023-01-28T19:09:12.785Z,7.30
2023-01-28T19:11:41.043Z,6.57
2023-01-28T19:14:10.504Z,6.82
2023-01-28T19:16:37.810Z,7.90
2023-01-28T19:19:05.646Z,6.90
2023-01-28T19:21:34.225Z,6.70
2023-01-28T19:24:06.737Z,6.95
2023-01-28T19:26:34.139Z,6.28
2023-01-28T19:29:01.717Z,6.15
2023-01-28T19:31:29.440Z,5.93
2023-01-28T19:33:59.446Z,6.97
2023-01-28T19:36:29.479Z,5.38
2023-01-28T19:39:07.621Z,6.13
2023-01-28T19:41:35.909Z,5.82
2023-01-28T19:44:03.440Z,6.85
2023-01-28T19:46:30.876Z,7.07
2023-01-28T19:48:57.759Z,8.50
2023-01-28T19:51:25.167Z,7.40
2023-01-28T19:53:54.352Z,5.80
2023-01-28T19:56:24.386Z,5.40
2023-01-28T19:58:54.825Z,6.60
2023-01-28T20:01:27.943Z,6.43
2023-01-28T20:03:59.442Z,6.45
2023-01-28T20:06:31.650Z,5.75
2023-01-28T20:09:06.222Z,6.43
2023-01-28T20:11:33.161Z,6.47
2023-01-28T20:14:00.074Z,6.03
2023-01-28T20:16:31.247Z,6.13
2023-01-28T20:19:04.338Z,5.88
2023-01-28T20:21:33.171Z,6.55
2023-01-28T20:24:02.341Z,7.47
2023-01-28T20:26:33.250Z,6.28
2023-01-28T20:29:09.666Z,5.57
2023-01-28T20:31:38.775Z,6.80
2023-01-28T20:34:06.154Z,6.20
2023-01-28T20:36:33.281Z,5.70
2023-01-28T20:39:00.537Z,6.55
2023-01-28T20:41:27.792Z,5.78
2023-01-28T20:43:55.387Z,6.20
2023-01-28T20:46:27.747Z,6.80
2023-01-28T20:48:57.636Z,5.35
2023-01-28T20:51:28.387Z,6.07
2023-01-28T20:53:56.283Z,4.32
2023-01-28T20:56:27.653Z,5.40
2023-01-28T20:58:57.823Z,4.93
2023-01-28T21:01:29.450Z,6.00
2023-01-28T21:03:57.041Z,6.55
2023-01-28T21:06:25.265Z,6.05
2023-01-28T21:08:53.354Z,7.88
2023-01-28T21:11:21.044Z,6.03
2023-01-28T21:13:48.110Z,4.78
2023-01-28T21:16:15.206Z,4.82
2023-01-28T21:18:42.352Z,6.18
2023-01-28T21:21:20.911Z,4.43
2023-01-28T21:23:48.635Z,5.30
2023-01-28T21:26:16.669Z,5.13
2023-01-28T21:28:45.914Z,5.68
2023-01-28T21:31:22.194Z,5.40
2023-01-28T21:33:50.802Z,4.55
2023-01-28T21:36:18.718Z,4.88
2023-01-28T21:38:51.087Z,4.80
2023-01-28T21:41:18.074Z,6.20
2023-01-28T21:43:44.944Z,5.13
2023-01-28T21:46:11.827Z,4.85
2023-01-28T21:48:38.727Z,4.32
2023-01-28T21:51:47.363Z,4.90
2023-01-28T21:54:19.519Z,5.45
2023-01-28T21:56:49.431Z,5.63
2023-01-28T21:59:30.755Z,4.50
2023-01-28T22:02:01.235Z,5.85
2023-01-28T22:04:35.201Z,5.57
2023-01-28T22:07:03.701Z,4.53
2023-01-28T22:09:31.349Z,4.85
2023-01-28T22:11:58.261Z,4.63
2023-01-28T22:14:25.583Z,5.55
2023-01-28T22:16:53.329Z,4.50
2023-01-28T22:19:20.906Z,4.85
2023-01-28T22:21:48.745Z,4.45
2023-01-28T22:24:22.671Z,4.00
2023-01-28T22:26:49.984Z,3.28
2023-01-28T22:29:19.125Z,2.78
2023-01-28T22:31:50.894Z,3.10
2023-01-28T22:34:19.545Z,2.63
2023-01-28T22:36:47.474Z,3.53
2023-01-28T22:39:16.450Z,3.05
2023-01-28T22:41:44.796Z,3.22
2023-01-28T22:44:11.954Z,3.05
2023-01-28T22:46:38.888Z,3.13
2023-01-28T22:49:05.933Z,2.92
2023-01-28T22:51:35.990Z,2.70
2023-01-28T22:54:03.860Z,2.65
2023-01-28T22:56:31.763Z,2.60
2023-01-28T22:59:03.776Z,2.33
2023-01-28T23:01:31.201Z,1.95
2023-01-28T23:03:58.374Z,2.15
2023-01-28T23:06:27.685Z,1.80
2023-01-28T23:08:56.547Z,2.85
2023-01-28T23:11:28.352Z,2.88
2023-01-28T23:14:19.861Z,2.63
2023-01-28T23:17:06.476Z,2.88
2023-01-28T23:19:52.276Z,2.70
2023-01-28T23:22:47.424Z,2.05
2023-01-28T23:25:15.103Z,3.17
2023-01-28T23:27:43.210Z,2.63
2023-01-28T23:30:11.920Z,1.85
2023-01-28T23:32:41.981Z,2.75
2023-01-28T23:35:10.575Z,2.88
2023-01-28T23:37:37.844Z,2.42
2023-01-28T23:40:06.348Z,3.03
2023-01-28T23:42:33.252Z,2.95
2023-01-28T23:45:00.262Z,2.00
2023-01-28T23:47:27.144Z,2.28
2023-01-28T23:49:54.399Z,1.90
2023-01-28T23:52:21.373Z,3.38
2023-01-28T23:54:48.236Z,2.10
2023-01-28T23:57:15.169Z,2.60
2023-01-28T23:59:42.582Z,2.45
